Weather at Kaohsiung International Airport

Public forecast

Using degrees Celsius for public forecast. Weather courtesy of forecast.io.

Current aviation weather report (METAR) for Kaohsiung International Airport

2024/04/25 02:30 (retrieved 12 minutes ago)

RCKH 250230Z 14005KT 070V190 9999 SCT008 SCT025 BKN070 23/22 Q1010 NOSIG RMK A2984

Closest aviation forecast (TAF) to Kaohsiung International Airport

Forecast is more than 6 hours old.

Closest forecast is Xiamen Gaoqi International Airport, 170.0 nm (314.8 km) NW.

2024/04/24 18:57 Ammendment (retrieved 8 hours ago)

TAF AMD ZSAM 241951Z 2418/2518 06004G09MPS 6000 SCT010 BKN030 TX23/2506Z TN19/2421Z TEMPO 2418/2421 3000 TSRA FEW026CB BKN026 TEMPO 2506/2512 TSRA FEW026CB BKN026